Time;durP1;ratioP1;P1;durP2;ratioP2;P2;SDS_P1;SDS_P2;PMS_P1;PMS_P2;Temp;Humidity;BMP_temperature;BMP_pressure;BME280_temperature;BME280_humidity;BME280_pressure;Samples;Min_cycle;Max_cycle;Signal;HPM_P1;HPM_P2
2022/06/28 00:02:06;;;;;;;29.60;24.30;;;21.20;90.60;;;;;;5029951;28;20056;-70
2022/06/28 00:04:32;;;;;;;36.40;27.67;;;21.00;91.10;;;;;;5030115;28;20026;-70
2022/06/28 00:06:58;;;;;;;829.60;439.95;;;21.00;91.50;;;;;;5029735;28;20038;-70
2022/06/28 00:09:24;;;;;;;74.68;43.75;;;21.00;92.00;;;;;;5029892;28;20105;-70
2022/06/28 00:11:50;;;;;;;42.28;28.38;;;21.00;91.40;;;;;;5029788;28;20053;-71
2022/06/28 00:17:00;;;;;;;44.33;29.15;;;21.00;92.30;;;;;;5029991;28;20032;-70
2022/06/28 00:19:26;;;;;;;39.60;27.25;;;20.80;92.20;;;;;;5030000;28;20462;-69
2022/06/28 00:21:52;;;;;;;41.60;29.65;;;;;;;;;;5012408;28;20074;-68
2022/06/28 00:24:17;;;;;;;46.78;33.92;;;20.90;92.50;;;;;;5029841;28;20033;-69
2022/06/28 00:26:44;;;;;;;47.47;34.00;;;;;;;;;;5029782;28;20030;-69
2022/06/28 00:29:10;;;;;;;48.00;35.40;;;;;;;;;;5029373;28;20037;-70
2022/06/28 00:31:36;;;;;;;40.95;28.70;;;21.20;92.60;;;;;;5021131;28;20162;-69
2022/06/28 00:34:03;;;;;;;35.92;28.30;;;21.00;92.50;;;;;;5024746;28;20104;-69
2022/06/28 00:36:29;;;;;;;35.63;26.27;;;20.90;92.50;;;;;;5015932;28;20026;-69
2022/06/28 00:38:54;;;;;;;37.13;28.58;;;20.70;92.60;;;;;;5028239;28;20036;-70
2022/06/28 00:41:20;;;;;;;52.10;33.35;;;20.70;92.90;;;;;;5023972;28;20158;-69
2022/06/28 00:43:46;;;;;;;51.35;31.52;;;20.70;93.20;;;;;;5028124;28;20020;-69
2022/06/28 00:46:12;;;;;;;46.90;30.38;;;20.60;93.20;;;;;;5029409;28;20459;-69
2022/06/28 00:48:38;;;;;;;45.90;28.02;;;20.50;93.20;;;;;;5028376;28;20024;-69
2022/06/28 00:51:05;;;;;;;41.95;28.35;;;20.50;93.20;;;;;;5029487;28;20513;-69
2022/06/28 00:53:30;;;;;;;42.13;27.10;;;20.40;93.10;;;;;;5011386;28;20033;-69
2022/06/28 00:55:56;;;;;;;35.70;26.52;;;20.30;93.20;;;;;;5029111;28;20079;-69
2022/06/28 00:58:21;;;;;;;37.22;26.50;;;20.40;93.40;;;;;;5029127;28;20457;-70
2022/06/28 01:00:49;;;;;;;33.97;24.00;;;20.20;93.10;;;;;;5029331;28;20441;-70
2022/06/28 01:03:17;;;;;;;30.42;22.38;;;20.10;92.90;;;;;;5029245;28;20460;-71
2022/06/28 01:05:43;;;;;;;27.88;21.58;;;19.90;92.30;;;;;;5029263;28;20029;-70
2022/06/28 01:08:09;;;;;;;30.95;23.67;;;;;;;;;;5028592;28;20039;-69
2022/06/28 01:10:36;;;;;;;38.33;26.30;;;;;;;;;;5028960;28;20055;-70
2022/06/28 01:13:03;;;;;;;38.30;26.63;;;;;;;;;;5011304;28;20025;-70
2022/06/28 01:15:29;;;;;;;45.80;30.85;;;;;;;;;;5028742;28;20514;-70
2022/06/28 01:17:55;;;;;;;46.35;32.10;;;;;;;;;;5028619;28;20082;-70
2022/06/28 01:20:22;;;;;;;50.35;32.75;;;;;;;;;;5029133;28;20059;-70
2022/06/28 01:22:48;;;;;;;49.08;32.33;;;;;;;;;;5028771;28;20051;-70
2022/06/28 01:25:14;;;;;;;57.53;36.60;;;;;;;;;;5028772;28;20502;-70
2022/06/28 01:27:40;;;;;;;45.50;32.38;;;;;;;;;;5010834;28;20029;-70
2022/06/28 01:30:07;;;;;;;50.35;31.50;;;;;;;;;;5028545;28;20419;-69
2022/06/28 01:32:33;;;;;;;55.10;32.05;;;;;;;;;;5020065;28;20093;-69
2022/06/28 01:35:00;;;;;;;53.60;32.47;;;;;;;;;;5010810;28;20041;-69
2022/06/28 01:37:27;;;;;;;52.42;33.47;;;;;;;;;;5028290;28;20028;-70
2022/06/28 01:39:53;;;;;;;74.47;38.72;;;;;;;;;;5028768;28;20021;-70
2022/06/28 01:42:19;;;;;;;78.38;39.08;;;;;;;;;;5028630;28;20029;-70
2022/06/28 01:44:45;;;;;;;68.70;38.10;;;;;;;;;;5028701;28;20051;-70
2022/06/28 01:47:12;;;;;;;69.20;37.97;;;;;;;;;;5028420;28;20049;-70
2022/06/28 01:49:38;;;;;;;65.78;37.10;;;;;;;;;;5028457;28;20029;-70
2022/06/28 01:52:04;;;;;;;76.13;40.67;;;;;;;;;;5028446;28;20376;-70
2022/06/28 01:54:30;;;;;;;60.15;37.03;;;;;;;;;;5010850;28;20025;-70
2022/06/28 01:56:56;;;;;;;72.00;39.78;;;;;;;;;;5010813;28;20510;-70
2022/06/28 01:59:23;;;;;;;85.90;42.65;;;;;;;;;;5029394;28;20053;-70
2022/06/28 02:01:50;;;;;;;78.07;41.85;;;;;;;;;;5031872;28;20029;-71
2022/06/28 02:04:18;;;;;;;69.22;38.17;;;;;;;;;;5032425;28;20030;-70
2022/06/28 02:06:44;;;;;;;76.35;40.72;;;;;;;;;;5031952;28;20025;-70
2022/06/28 02:09:10;;;;;;;87.70;43.10;;;18.80;93.80;;;;;;5032179;28;20033;-71
2022/06/28 02:11:36;;;;;;;89.93;44.95;;;18.80;94.30;;;;;;5032102;28;20026;-71
2022/06/28 02:14:01;;;;;;;85.50;44.65;;;18.90;94.30;;;;;;5031857;28;20492;-71
2022/06/28 02:16:27;;;;;;;104.45;47.47;;;19.00;94.50;;;;;;5014201;28;20018;-71
2022/06/28 02:18:52;;;;;;;102.88;48.47;;;19.00;94.50;;;;;;5031553;28;20025;-72
2022/06/28 02:21:18;;;;;;;107.80;50.15;;;19.30;94.80;;;;;;5031734;28;20105;-72
2022/06/28 02:23:44;;;;;;;109.63;46.72;;;19.40;94.70;;;;;;5013982;28;20487;-72
2022/06/28 02:26:11;;;;;;;102.30;48.80;;;19.40;94.70;;;;;;5031788;28;20075;-72
2022/06/28 02:28:37;;;;;;;88.88;45.75;;;19.40;94.70;;;;;;5031326;28;20531;-71
2022/06/28 02:31:14;;;;;;;70.28;40.85;;;19.40;94.50;;;;;;5026703;28;20029;-71
2022/06/28 02:33:42;;;;;;;106.90;49.35;;;19.40;94.60;;;;;;5029353;28;20030;-70
2022/06/28 02:41:37;;;;;;;90.38;46.35;;;19.50;94.70;;;;;;5031813;28;20502;-72
2022/06/28 02:44:04;;;;;;;78.00;42.17;;;19.30;94.10;;;;;;5031336;28;20273;-72
2022/06/28 02:46:30;;;;;;;90.25;48.25;;;19.30;94.20;;;;;;5031347;28;20503;-72
2022/06/28 02:48:55;;;;;;;77.10;45.00;;;19.30;94.30;;;;;;5031056;28;20148;-72
2022/06/28 02:51:21;;;;;;;78.00;43.15;;;19.20;94.00;;;;;;5031547;28;20029;-73
2022/06/28 02:53:47;;;;;;;65.32;42.30;;;19.10;93.70;;;;;;5031686;28;20051;-73
2022/06/28 02:56:13;;;;;;;70.88;43.22;;;19.00;93.80;;;;;;5031394;28;20021;-73
2022/06/28 02:58:39;;;;;;;82.15;45.90;;;18.90;93.50;;;;;;5030474;28;20034;-73
2022/06/28 03:01:05;;;;;;;66.53;43.22;;;18.90;93.70;;;;;;5031109;28;20030;-73
2022/06/28 03:03:30;;;;;;;73.90;45.60;;;19.00;93.90;;;;;;5030875;28;20037;-71
2022/06/28 03:05:56;;;;;;;74.40;44.17;;;18.90;93.90;;;;;;5031149;28;20029;-72
2022/06/28 03:08:22;;;;;;;609.67;312.38;;;18.80;93.50;;;;;;5030475;28;20059;-70
2022/06/28 03:10:48;;;;;;;81.80;48.28;;;18.80;93.90;;;;;;5030350;28;20029;-71
2022/06/28 03:13:13;;;;;;;154.07;80.65;;;18.80;93.60;;;;;;5030759;28;20475;-70
2022/06/28 03:15:39;;;;;;;128.75;62.85;;;18.80;93.60;;;;;;5030774;28;20032;-71
2022/06/28 03:18:05;;;;;;;64.53;43.38;;;18.80;93.50;;;;;;5030433;28;20029;-71
2022/06/28 03:20:31;;;;;;;1329.57;674.03;;;18.70;93.30;;;;;;5030818;28;20077;-71
2022/06/28 03:22:56;;;;;;;110.57;60.33;;;18.70;93.40;;;;;;5030737;28;20108;-71
2022/06/28 03:25:22;;;;;;;149.50;70.22;;;18.70;93.30;;;;;;5012994;28;20030;-71
2022/06/28 03:27:48;;;;;;;102.05;51.35;;;18.50;93.30;;;;;;5012384;28;20498;-72
2022/06/28 03:30:15;;;;;;;79.95;44.63;;;18.60;93.20;;;;;;5030460;28;20044;-72
2022/06/28 03:32:40;;;;;;;59.60;38.78;;;18.60;93.40;;;;;;5021955;28;20025;-71
2022/06/28 03:35:07;;;;;;;65.53;40.42;;;18.60;93.20;;;;;;5030667;28;20505;-72
2022/06/28 03:37:33;;;;;;;72.18;42.05;;;18.60;93.50;;;;;;5012458;28;20022;-70
2022/06/28 03:39:59;;;;;;;59.67;40.50;;;18.60;92.90;;;;;;5030928;28;20026;-70
2022/06/28 03:42:24;;;;;;;48.55;36.28;;;18.70;93.20;;;;;;5012849;28;20026;-70
2022/06/28 03:44:50;;;;;;;46.78;35.13;;;18.70;92.60;;;;;;5030314;28;20021;-70
2022/06/28 03:47:16;;;;;;;44.65;34.85;;;18.60;92.60;;;;;;5030234;28;20101;-71
2022/06/28 03:49:42;;;;;;;52.40;37.45;;;18.50;92.10;;;;;;5030094;28;20096;-71
2022/06/28 03:52:07;;;;;;;45.05;35.58;;;18.60;92.80;;;;;;5030215;28;20478;-71
2022/06/28 03:54:33;;;;;;;49.42;36.60;;;18.60;92.70;;;;;;5012209;28;20028;-70
2022/06/28 03:56:59;;;;;;;42.63;35.22;;;18.70;92.90;;;;;;5029857;28;20450;-72
2022/06/28 03:59:25;;;;;;;43.72;33.58;;;18.70;92.50;;;;;;5029904;28;20108;-70
2022/06/28 04:01:50;;;;;;;48.38;36.85;;;18.60;91.50;;;;;;5029923;28;20034;-70
2022/06/28 04:04:16;;;;;;;48.83;35.92;;;18.50;91.70;;;;;;5029971;28;20097;-70
2022/06/28 04:06:42;;;;;;;50.45;37.00;;;18.60;91.90;;;;;;5029756;28;20056;-71
2022/06/28 04:09:07;;;;;;;48.72;36.33;;;18.60;91.40;;;;;;5029528;28;20040;-71
2022/06/28 04:11:33;;;;;;;47.05;36.65;;;18.60;91.90;;;;;;5029761;28;20026;-71
2022/06/28 04:13:58;;;;;;;50.70;38.65;;;18.50;90.90;;;;;;5029564;28;20398;-72
2022/06/28 04:16:24;;;;;;;50.35;36.47;;;18.60;91.60;;;;;;5030076;28;20026;-71
2022/06/28 04:18:50;;;;;;;46.22;35.13;;;18.60;91.20;;;;;;5029667;28;20025;-71
2022/06/28 04:21:18;;;;;;;41.97;34.00;;;18.70;90.50;;;;;;5030186;28;20427;-71
2022/06/28 04:23:43;;;;;;;42.13;33.25;;;18.70;90.30;;;;;;5028504;28;20029;-71
2022/06/28 04:26:10;;;;;;;44.60;33.90;;;18.80;91.00;;;;;;5029584;28;20029;-71
2022/06/28 04:28:35;;;;;;;35.55;31.55;;;18.80;91.00;;;;;;5029193;28;20048;-71
2022/06/28 04:31:03;;;;;;;37.67;31.73;;;18.80;90.00;;;;;;5022915;28;20275;-71
2022/06/28 04:33:28;;;;;;;33.72;28.27;;;18.80;90.20;;;;;;4987271;28;20026;-71
2022/06/28 04:35:55;;;;;;;33.05;29.00;;;18.80;89.20;;;;;;5024741;28;20036;-71
2022/06/28 04:38:20;;;;;;;31.30;28.00;;;18.70;88.90;;;;;;5055613;28;20037;-71
2022/06/28 04:40:46;;;;;;;32.58;27.95;;;18.70;89.40;;;;;;5010051;28;20052;-71
2022/06/28 04:43:12;;;;;;;31.67;28.23;;;18.70;89.40;;;;;;5025750;28;20022;-71
2022/06/28 04:45:38;;;;;;;33.47;27.58;;;18.60;88.90;;;;;;5028197;28;20049;-71
2022/06/28 04:48:04;;;;;;;31.92;28.25;;;18.70;89.00;;;;;;5012750;28;20033;-72
2022/06/28 04:50:30;;;;;;;33.38;27.77;;;18.70;89.50;;;;;;5029044;28;20482;-71
2022/06/28 04:52:56;;;;;;;32.65;27.38;;;18.70;87.90;;;;;;5029524;28;20036;-71
2022/06/28 04:55:22;;;;;;;27.98;24.58;;;18.70;88.50;;;;;;5029161;28;20074;-71
2022/06/28 04:57:47;;;;;;;28.63;25.52;;;18.80;87.70;;;;;;5028986;28;20124;-71
2022/06/28 05:00:14;;;;;;;31.58;24.23;;;18.90;87.80;;;;;;5029043;28;20033;-71
2022/06/28 05:02:40;;;;;;;26.90;22.63;;;18.90;87.60;;;;;;5016706;28;20056;-71
2022/06/28 05:05:07;;;;;;;25.35;22.75;;;18.90;86.80;;;;;;4993076;28;20040;-70
2022/06/28 05:07:33;;;;;;;25.35;22.65;;;18.90;86.80;;;;;;5025127;28;20293;-72
2022/06/28 05:10:00;;;;;;;21.77;19.52;;;19.00;85.50;;;;;;5027933;28;20051;-71
2022/06/28 05:12:25;;;;;;;24.77;21.20;;;19.00;86.20;;;;;;5027085;28;20022;-70
2022/06/28 05:14:51;;;;;;;21.65;19.38;;;19.10;85.90;;;;;;5029321;28;20551;-71
2022/06/28 05:17:17;;;;;;;22.05;19.85;;;19.10;84.90;;;;;;5002658;28;20283;-71
2022/06/28 05:19:42;;;;;;;20.05;17.95;;;19.20;84.80;;;;;;5024614;28;20635;-70
2022/06/28 05:22:08;;;;;;;22.00;18.25;;;19.30;84.30;;;;;;5028559;28;20685;-71
2022/06/28 05:24:35;;;;;;;20.20;17.98;;;19.40;84.40;;;;;;5028135;28;20029;-71
2022/06/28 05:27:01;;;;;;;23.00;18.77;;;19.60;84.60;;;;;;5028668;28;20034;-73
2022/06/28 05:29:27;;;;;;;20.58;18.45;;;19.90;84.50;;;;;;5041204;22;20503;-73
2022/06/28 05:31:53;;;;;;;21.65;19.05;;;20.00;82.60;;;;;;5038896;28;20017;-73
2022/06/28 05:34:18;;;;;;;20.98;17.80;;;20.20;82.60;;;;;;5023394;28;20029;-73
2022/06/28 05:36:44;;;;;;;19.90;17.45;;;20.40;82.50;;;;;;5038759;28;20066;-73
2022/06/28 05:39:10;;;;;;;17.88;16.00;;;20.70;80.50;;;;;;5034519;28;20651;-73
2022/06/28 05:41:36;;;;;;;18.73;15.77;;;21.00;79.10;;;;;;5028814;28;20025;-73
2022/06/28 05:44:02;;;;;;;17.02;14.68;;;21.40;77.10;;;;;;5028654;28;20028;-73
2022/06/28 05:46:28;;;;;;;17.55;14.55;;;21.50;77.30;;;;;;5011031;28;20536;-73
2022/06/28 05:48:54;;;;;;;19.48;15.38;;;21.60;75.90;;;;;;5028339;28;20025;-73
2022/06/28 05:51:20;;;;;;;17.15;14.10;;;;;;;;;;5028591;28;20105;-72
2022/06/28 05:53:46;;;;;;;15.75;14.05;;;;;;;;;;5028413;28;20037;-72
2022/06/28 05:56:12;;;;;;;18.63;15.77;;;;;;;;;;5028581;28;20029;-73
2022/06/28 05:58:38;;;;;;;16.40;14.00;;;;;;;;;;5027964;28;20056;-73
2022/06/28 06:01:05;;;;;;;15.60;13.95;;;;;;;;;;5010628;28;20061;-73
2022/06/28 06:03:32;;;;;;;16.50;13.10;;;;;;;;;;5032007;28;20045;-73
2022/06/28 06:05:57;;;;;;;18.50;14.45;;;;;;;;;;5005769;28;20030;-73
2022/06/28 06:08:23;;;;;;;14.23;12.73;;;24.10;66.80;;;;;;5021960;28;20028;-74
2022/06/28 06:10:49;;;;;;;14.85;12.43;;;24.40;66.10;;;;;;5009944;28;20395;-73
2022/06/28 06:13:14;;;;;;;17.88;12.35;;;25.20;61.20;;;;;;5027186;28;20056;-73
2022/06/28 06:15:40;;;;;;;13.98;12.45;;;;;;;;;;5027631;28;20487;-73
2022/06/28 06:18:07;;;;;;;13.55;12.25;;;;;;;;;;5027827;28;20025;-74
2022/06/28 06:20:33;;;;;;;16.88;11.77;;;;;;;;;;5010862;28;20018;-74
2022/06/28 06:22:59;;;;;;;14.00;12.48;;;;;;;;;;5028806;28;20044;-74
2022/06/28 06:25:24;;;;;;;15.98;13.20;;;26.40;57.80;;;;;;5028114;28;20037;-71
2022/06/28 06:27:50;;;;;;;16.92;13.82;;;25.90;57.50;;;;;;5027616;28;20029;-73
2022/06/28 06:30:15;;;;;;;18.00;14.45;;;25.50;58.20;;;;;;5027477;28;20090;-73
2022/06/28 06:32:41;;;;;;;17.00;13.80;;;25.20;59.90;;;;;;5019530;28;20073;-73
2022/06/28 06:35:08;;;;;;;21.90;14.95;;;25.00;60.40;;;;;;5027689;28;20104;-73
2022/06/28 06:37:35;;;;;;;17.30;13.65;;;25.40;60.10;;;;;;5009982;28;20082;-74
2022/06/28 06:40:01;;;;;;;21.48;14.98;;;25.40;59.60;;;;;;5027546;28;20018;-73
2022/06/28 06:42:26;;;;;;;17.20;14.13;;;25.40;60.10;;;;;;5027972;28;20018;-73
2022/06/28 06:44:52;;;;;;;17.90;14.07;;;25.30;60.20;;;;;;5027697;28;20033;-74
2022/06/28 06:47:18;;;;;;;22.95;15.10;;;25.00;60.20;;;;;;5012043;28;20036;-74
2022/06/28 06:49:43;;;;;;;19.35;15.32;;;24.80;61.20;;;;;;5030812;28;20055;-73
2022/06/28 06:52:10;;;;;;;18.85;14.68;;;24.80;61.70;;;;;;5030836;28;20026;-71
2022/06/28 06:54:35;;;;;;;21.30;15.57;;;25.00;60.30;;;;;;5030977;28;20044;-72
2022/06/28 06:57:01;;;;;;;17.17;15.25;;;25.10;60.10;;;;;;5030956;28;20018;-73
2022/06/28 06:59:26;;;;;;;20.35;14.57;;;24.90;60.50;;;;;;5030725;28;20238;-73
2022/06/28 07:01:52;;;;;;;17.13;15.02;;;24.70;62.00;;;;;;5030976;28;20025;-73
2022/06/28 07:04:18;;;;;;;18.08;15.18;;;24.50;62.10;;;;;;5031180;28;20030;-73
2022/06/28 07:06:44;;;;;;;25.02;14.80;;;24.20;61.90;;;;;;5030722;28;20057;-73
2022/06/28 07:09:10;;;;;;;16.77;13.52;;;24.00;63.10;;;;;;5030458;28;20026;-73
2022/06/28 07:11:35;;;;;;;14.88;12.60;;;24.10;63.80;;;;;;5031084;28;20571;-72
2022/06/28 07:14:02;;;;;;;18.88;13.75;;;24.40;63.10;;;;;;5031247;28;20089;-72
2022/06/28 07:16:28;;;;;;;17.88;12.40;;;24.60;61.00;;;;;;5031134;28;20506;-72
2022/06/28 07:18:53;;;;;;;17.52;12.57;;;24.70;60.30;;;;;;5030606;28;20036;-72
2022/06/28 07:21:19;;;;;;;18.75;13.30;;;24.30;59.60;;;;;;5030699;28;20383;-71
2022/06/28 07:23:45;;;;;;;15.50;13.18;;;24.20;60.00;;;;;;5030458;28;20047;-71
2022/06/28 07:26:11;;;;;;;18.33;14.40;;;23.80;60.90;;;;;;5030727;28;20033;-71
2022/06/28 07:28:37;;;;;;;17.88;12.90;;;23.80;61.50;;;;;;5030220;28;20040;-73
2022/06/28 07:31:03;;;;;;;17.13;13.40;;;23.80;62.00;;;;;;5025584;28;20109;-69
2022/06/28 07:33:28;;;;;;;33.97;26.20;;;23.80;61.70;;;;;;5026602;28;20032;-69
2022/06/28 07:35:57;;;;;;;22.08;17.17;;;24.00;62.20;;;;;;5030106;28;20128;-71
2022/06/28 07:38:22;;;;;;;106.50;58.40;;;24.10;61.10;;;;;;5030333;28;20644;-69
2022/06/28 07:40:48;;;;;;;91.97;46.05;;;24.50;61.40;;;;;;5030291;28;20100;-68
2022/06/28 07:43:13;;;;;;;15.55;13.70;;;24.70;60.00;;;;;;5030647;28;20527;-69
2022/06/28 07:45:40;;;;;;;21.25;14.57;;;24.80;58.90;;;;;;5030214;28;20056;-69
2022/06/28 07:48:07;;;;;;;31.00;24.05;;;24.60;58.90;;;;;;5030054;28;20026;-69
2022/06/28 07:53:17;;;;;;;23.30;17.02;;;25.00;59.60;;;;;;5030202;28;20079;-69
2022/06/28 07:55:43;;;;;;;16.42;14.57;;;25.30;57.60;;;;;;5030120;28;20029;-70
2022/06/28 07:58:08;;;;;;;29.73;19.08;;;25.50;59.10;;;;;;5012027;28;20112;-69
2022/06/28 08:00:34;;;;;;;18.50;15.88;;;25.70;58.60;;;;;;5012888;28;20045;-68
2022/06/28 08:03:00;;;;;;;20.23;16.02;;;25.50;57.80;;;;;;5029980;28;20056;-69
2022/06/28 08:05:25;;;;;;;16.92;14.00;;;25.40;57.20;;;;;;5029774;28;20033;-69
2022/06/28 08:07:51;;;;;;;18.90;16.90;;;25.40;57.90;;;;;;5029701;28;20025;-69
2022/06/28 08:10:17;;;;;;;19.60;16.27;;;24.60;58.40;;;;;;5030038;28;20032;-69
2022/06/28 08:12:44;;;;;;;20.70;16.15;;;24.00;60.80;;;;;;5030017;28;20368;-69
2022/06/28 08:15:10;;;;;;;37.90;31.55;;;24.00;61.80;;;;;;5030029;28;20029;-69
2022/06/28 08:17:36;;;;;;;25.08;21.00;;;24.10;61.90;;;;;;5029624;28;20045;-68
2022/06/28 08:20:02;;;;;;;20.90;17.05;;;24.00;62.00;;;;;;5029649;28;20053;-68
2022/06/28 08:22:28;;;;;;;34.20;26.88;;;23.30;62.60;;;;;;5029616;28;20036;-69
2022/06/28 08:24:53;;;;;;;21.65;19.23;;;22.70;65.90;;;;;;5030131;28;20025;-70
2022/06/28 08:27:19;;;;;;;36.58;26.98;;;22.70;65.00;;;;;;5011774;28;20029;-68
2022/06/28 08:29:46;;;;;;;22.33;19.40;;;22.60;65.80;;;;;;5029667;28;20033;-68
2022/06/28 08:32:13;;;;;;;22.05;17.50;;;23.00;65.10;;;;;;5021099;28;20034;-68
2022/06/28 08:34:39;;;;;;;19.05;16.42;;;23.10;65.70;;;;;;5029588;28;20032;-69
2022/06/28 08:37:06;;;;;;;22.40;17.00;;;22.90;65.20;;;;;;5028878;28;20029;-70
2022/06/28 08:39:32;;;;;;;31.13;23.23;;;23.00;65.70;;;;;;5029341;28;20029;-70
2022/06/28 08:42:04;;;;;;;40.33;29.60;;;23.20;64.70;;;;;;5011762;28;20471;-69
2022/06/28 08:44:35;;;;;;;19.83;15.68;;;23.30;65.60;;;;;;5029503;28;20090;-68
2022/06/28 08:47:02;;;;;;;21.00;16.40;;;23.60;64.00;;;;;;5029115;28;20033;-67
2022/06/28 08:49:33;;;;;;;17.60;15.65;;;23.90;62.90;;;;;;5029130;28;20025;-68
2022/06/28 08:51:59;;;;;;;30.83;24.75;;;24.00;62.00;;;;;;4998065;28;20030;-67
2022/06/28 08:54:27;;;;;;;22.80;18.85;;;24.10;60.70;;;;;;5029534;28;20045;-70
2022/06/28 08:56:53;;;;;;;45.15;33.72;;;23.50;62.70;;;;;;5011370;28;20022;-68
2022/06/28 08:59:18;;;;;;;56.30;37.53;;;23.60;63.00;;;;;;5028814;28;20067;-68
2022/06/28 09:01:44;;;;;;;26.45;20.90;;;23.80;63.10;;;;;;5028961;28;20053;-69
2022/06/28 09:04:10;;;;;;;35.38;27.65;;;24.00;61.10;;;;;;5028956;28;20014;-70
2022/06/28 09:06:37;;;;;;;21.15;15.63;;;24.20;61.00;;;;;;5029038;28;20057;-70
2022/06/28 09:09:03;;;;;;;18.60;15.93;;;24.40;60.00;;;;;;5028148;28;20026;-69
2022/06/28 09:11:40;;;;;;;27.67;21.58;;;24.70;60.10;;;;;;5028854;28;20407;-70
2022/06/28 09:14:27;;;;;;;18.88;15.20;;;25.40;56.10;;;;;;4988922;28;20042;-70
2022/06/28 09:16:54;;;;;;;30.50;20.48;;;25.40;57.20;;;;;;4988650;28;20034;-70
2022/06/28 09:19:38;;;;;;;18.73;12.98;;;25.70;56.50;;;;;;4989745;28;20031;-70
2022/06/28 09:22:05;;;;;;;20.15;16.30;;;26.20;54.60;;;;;;4990089;28;20476;-70
2022/06/28 09:24:31;;;;;;;20.63;17.13;;;26.50;54.50;;;;;;4988915;28;20034;-70
2022/06/28 09:27:03;;;;;;;15.45;13.05;;;27.40;53.50;;;;;;4990065;28;20090;-71
2022/06/28 09:29:29;;;;;;;21.75;17.52;;;28.60;48.40;;;;;;4989627;28;20474;-70
2022/06/28 09:31:55;;;;;;;41.80;30.17;;;29.50;47.00;;;;;;4989759;28;20030;-71
2022/06/28 09:34:21;;;;;;;17.90;15.73;;;29.40;46.70;;;;;;4989817;28;20553;-70
2022/06/28 09:36:58;;;;;;;15.13;13.55;;;30.70;44.20;;;;;;4989625;28;20030;-69
2022/06/28 09:39:28;;;;;;;13.02;11.68;;;30.90;41.60;;;;;;4989718;28;20050;-70
2022/06/28 09:41:56;;;;;;;12.87;11.60;;;30.70;42.80;;;;;;4989702;28;20027;-70
2022/06/28 09:44:29;;;;;;;16.30;12.60;;;30.60;41.90;;;;;;4989447;28;20514;-70
2022/06/28 09:46:57;;;;;;;11.75;9.60;;;30.10;44.40;;;;;;4972026;28;20179;-70
2022/06/28 09:49:30;;;;;;;13.25;11.85;;;30.80;43.30;;;;;;4989470;28;20027;-69
2022/06/28 09:51:57;;;;;;;17.83;14.80;;;;;;;;;;4989364;28;20050;-69
2022/06/28 09:54:25;;;;;;;15.05;12.05;;;;;;;;;;4989337;28;20031;-69
2022/06/28 09:56:55;;;;;;;15.00;11.65;;;29.00;45.50;;;;;;4989165;28;20044;-68
2022/06/28 09:59:26;;;;;;;12.75;10.43;;;28.50;45.50;;;;;;4989018;28;20456;-69
2022/06/28 10:01:56;;;;;;;14.75;12.32;;;28.30;46.60;;;;;;4989595;28;20037;-69
2022/06/28 10:04:26;;;;;;;13.63;12.23;;;27.90;46.90;;;;;;4989412;28;20101;-70
2022/06/28 10:06:52;;;;;;;13.37;12.07;;;26.80;48.70;;;;;;4989166;28;20033;-69
2022/06/28 10:09:20;;;;;;;10.27;9.20;;;25.50;50.90;;;;;;4971567;28;20030;-70
2022/06/28 10:17:35;;;;;;;10.00;8.43;;;25.10;52.20;;;;;;4989078;28;20029;-71
2022/06/28 10:20:04;;;;;;;10.10;8.18;;;25.60;49.70;;;;;;4989581;28;20022;-70
2022/06/28 10:22:30;;;;;;;10.95;9.07;;;26.50;52.30;;;;;;4991819;28;20022;-69
2022/06/28 10:24:57;;;;;;;9.93;8.93;;;27.60;48.90;;;;;;4993008;28;20121;-70
2022/06/28 10:27:24;;;;;;;9.90;8.90;;;28.40;45.90;;;;;;4992449;28;20034;-70
2022/06/28 10:29:59;;;;;;;8.50;7.55;;;28.70;45.20;;;;;;4992948;28;20039;-70
2022/06/28 10:32:46;;;;;;;8.68;7.18;;;28.40;45.20;;;;;;4993130;28;20026;-71
2022/06/28 10:35:31;;;;;;;10.90;7.97;;;28.50;46.90;;;;;;4993717;28;20022;-70
2022/06/28 10:38:08;;;;;;;9.02;8.05;;;28.50;45.80;;;;;;4975180;28;20400;-70
2022/06/28 10:40:49;;;;;;;9.43;7.13;;;28.20;44.50;;;;;;4992948;28;20023;-70
2022/06/28 10:43:37;;;;;;;7.25;5.88;;;28.00;45.80;;;;;;4992199;28;20563;-69
2022/06/28 10:46:05;;;;;;;7.30;6.57;;;27.70;47.20;;;;;;4980383;28;20034;-69
2022/06/28 10:48:48;;;;;;;6.70;6.00;;;27.80;44.40;;;;;;5005006;28;20029;-70
2022/06/28 10:51:14;;;;;;;7.78;6.97;;;27.70;45.20;;;;;;5010446;28;20022;-70
2022/06/28 10:53:55;;;;;;;8.60;6.95;;;27.00;46.30;;;;;;5010044;28;20396;-70
2022/06/28 10:56:22;;;;;;;9.88;5.60;;;26.80;46.40;;;;;;5010038;28;20057;-70
2022/06/28 10:59:02;;;;;;;7.05;5.25;;;26.50;47.20;;;;;;5010932;28;20098;-70
2022/06/28 11:01:40;;;;;;;10.20;6.40;;;26.70;46.60;;;;;;5011795;28;20026;-70
2022/06/28 11:04:18;;;;;;;6.75;5.20;;;26.30;46.00;;;;;;5011605;28;20026;-70
2022/06/28 11:06:56;;;;;;;7.93;5.82;;;25.90;47.50;;;;;;5011655;28;20026;-70
2022/06/28 11:09:58;;;;;;;5.82;5.30;;;25.60;48.90;;;;;;5011505;28;20025;-70
2022/06/28 11:12:30;;;;;;;6.60;5.72;;;26.00;47.80;;;;;;5011674;28;20472;-70
2022/06/28 11:15:01;;;;;;;7.82;6.07;;;26.20;47.90;;;;;;5011513;28;20115;-70
2022/06/28 11:17:30;;;;;;;5.97;5.32;;;26.00;48.10;;;;;;5010989;28;20466;-69
2022/06/28 11:20:00;;;;;;;6.35;5.75;;;26.20;49.10;;;;;;5011291;28;20030;-69
2022/06/28 11:22:27;;;;;;;5.85;5.15;;;26.70;49.90;;;;;;5011524;28;20071;-69
2022/06/28 11:24:55;;;;;;;6.10;5.30;;;27.10;48.50;;;;;;5011486;28;20030;-69
2022/06/28 11:27:21;;;;;;;6.53;4.60;;;27.60;45.20;;;;;;5011229;28;20105;-70
2022/06/28 11:30:01;;;;;;;4.95;4.45;;;28.00;44.70;;;;;;5011073;23;20473;-67
2022/06/28 11:32:33;;;;;;;4.78;4.28;;;28.20;43.90;;;;;;5030089;28;20074;-67
2022/06/28 11:35:09;;;;;;;5.70;3.67;;;28.40;42.30;;;;;;5030394;28;20117;-68
2022/06/28 11:37:57;;;;;;;4.80;4.30;;;28.80;40.80;;;;;;5030630;28;20402;-68
2022/06/28 11:40:25;;;;;;;7.78;4.28;;;28.90;39.10;;;;;;5012810;28;20018;-68
2022/06/28 11:43:04;;;;;;;4.90;3.80;;;28.30;39.30;;;;;;5030479;28;20017;-68
2022/06/28 11:45:32;;;;;;;5.07;3.63;;;27.70;40.20;;;;;;5030434;28;20029;-67
2022/06/28 11:48:06;;;;;;;6.28;3.70;;;27.50;41.20;;;;;;5030493;28;20082;-67
2022/06/28 11:50:48;;;;;;;7.75;3.75;;;27.60;40.00;;;;;;5030461;28;20040;-68
2022/06/28 11:53:14;;;;;;;5.82;4.15;;;26.90;40.40;;;;;;5030597;28;20090;-68
2022/06/28 11:55:41;;;;;;;4.28;3.85;;;26.50;41.80;;;;;;5030159;28;20025;-67
2022/06/28 11:58:10;;;;;;;5.32;4.15;;;26.50;42.70;;;;;;5029853;28;20097;-69
2022/06/28 12:00:36;;;;;;;5.93;3.88;;;26.60;44.90;;;;;;5030209;28;20475;-67
2022/06/28 12:03:04;;;;;;;6.57;3.97;;;26.70;43.50;;;;;;5030327;28;20030;-68
2022/06/28 12:05:35;;;;;;;6.35;4.00;;;26.70;44.10;;;;;;5030311;28;20033;-66
2022/06/28 12:08:02;;;;;;;4.72;4.00;;;26.90;43.60;;;;;;5030011;28;20033;-66
2022/06/28 12:10:30;;;;;;;5.88;4.25;;;27.10;45.20;;;;;;5029946;28;20527;-68
2022/06/28 12:12:58;;;;;;;5.13;4.28;;;27.40;42.90;;;;;;5029974;28;20112;-68
2022/06/28 12:15:30;;;;;;;5.45;4.07;;;27.60;45.00;;;;;;5029998;28;20021;-67
2022/06/28 12:18:07;;;;;;;4.82;4.30;;;27.50;43.80;;;;;;5029851;28;20032;-71
2022/06/28 12:20:33;;;;;;;6.15;4.00;;;27.60;43.80;;;;;;5029709;28;20029;-68
2022/06/28 12:23:03;;;;;;;15.43;4.30;;;27.70;45.00;;;;;;5029896;28;20045;-68
2022/06/28 12:25:29;;;;;;;4.13;3.78;;;27.80;44.30;;;;;;5029996;28;20030;-67
2022/06/28 12:27:55;;;;;;;11.57;4.68;;;27.30;41.50;;;;;;5029876;28;20069;-67
2022/06/28 12:30:22;;;;;;;4.95;3.42;;;26.70;43.70;;;;;;5029849;28;20109;-68
2022/06/28 12:32:48;;;;;;;5.15;4.00;;;26.80;45.60;;;;;;5030270;28;20021;-68
2022/06/28 12:35:15;;;;;;;4.13;3.72;;;27.00;42.50;;;;;;5011824;28;20053;-70
2022/06/28 12:37:41;;;;;;;3.78;3.28;;;27.30;45.70;;;;;;5029467;28;20022;-68
2022/06/28 12:40:08;;;;;;;3.90;3.50;;;27.70;45.60;;;;;;5029544;28;20029;-67
2022/06/28 12:42:35;;;;;;;9.38;3.88;;;27.80;42.60;;;;;;5029128;28;20036;-67
2022/06/28 12:45:01;;;;;;;3.80;3.20;;;27.80;42.50;;;;;;5028384;28;20437;-69
2022/06/28 12:47:36;;;;;;;4.05;3.35;;;28.00;43.70;;;;;;5011816;28;20040;-67
2022/06/28 12:50:05;;;;;;;7.72;3.50;;;27.90;40.20;;;;;;5011521;28;20070;-67
2022/06/28 12:52:32;;;;;;;3.80;3.47;;;27.90;42.00;;;;;;5029291;28;20423;-68
2022/06/28 12:54:58;;;;;;;5.22;3.42;;;27.90;43.10;;;;;;5028884;28;20037;-69
2022/06/28 12:57:28;;;;;;;3.80;3.28;;;28.20;42.90;;;;;;5028179;28;20028;-69
2022/06/28 12:59:55;;;;;;;3.17;2.87;;;28.40;39.70;;;;;;5029272;28;20021;-68
2022/06/28 13:02:22;;;;;;;3.38;3.08;;;28.20;40.40;;;;;;5029321;28;20022;-69